UWGG

Nizhny Novgorod International Airport

Nizhny Novgorod, Russian Federation
TAF UWGG 221358Z 2215/2315 26003MPS 4000 -SN BR SCT011 TXM14/2312Z TNM22/2303Z
Issued Valid From Valid To
Jan-22 @ 13:58 UTC
(3 hours ago)
Jan-22 @ 15:00 UTC
(2 hours ago)
Jan-23 @ 15:00 UTC
(in 22 hours)
Jan-22 @ 15:00 to Jan-23 @ 15:00
TAF UWGG 221358Z 2215/2315 26003MPS 4000 -SN BR SCT011 TXM14/2312Z TNM22/2303Z
Wind Visibility Clouds Conditions
260° at 6 knots 4,007 meters
  • Scattered at 1,100' AGL
  • Light Snow
  • Mist
TAF UWGG 221358Z 2215/2315 26003MPS 4000 -SN BR SCT011 TXM14/2312Z TNM22/2303Z
Issued Jan-22 @ 13:58 UTC
(3 hours ago)
Valid From Jan-22 @ 15:00 UTC
(2 hours ago)
Valid To Jan-23 @ 15:00 UTC
(in 22 hours)
Jan-22 @ 15:00 - Jan-23 @ 15:00
Wind Visibility
260° at 6 knots 4,007 meters
Clouds
  • Scattered at 1,100' AGL
Conditions
  • Light Snow
  • Mist